Timeline UpdatesTrip UpdatesNews PostsPvt PostsTravel TipsAdmin PostsConv PostsFollowed PostsChat RequestsBlog PostsPNR Posts

Disclaimer
Search
 
 
Wed Oct 1, 2014 13:47:08 ISTHomeTrainsΣChainsAtlasPNRForumGalleryNewsFAQTripsMembersLoginFeedback
No Recent News for this Train
Other Trains in the News **new
Latest...
running with Inspection Car is of NR [0611/A]; since 2 weeks
Wed Jul 23, 2014 (11:12AM)
⇐ Return Journey: Train# 13483

13484/Farakka Express (via Faizabad)

Time-Table HAS CHANGED.
Sep 03 (1:27PM)
Change Departure Station:
Change Arrival Station:
Post a Train Travel TipPost a Train Travel Tip **new
Post a Comment/Question/Picture/VideoPost a Comment/Question/Picture/Video
Pantry/Catering
✓ Pantry Car Avbl
✓ Catering Avbl
RSA - Rake Sharing
13413/13414/04031/04032
Rake/Coach Composition
LOCO-SLR-UR-UR-S9-S8-S7-S6-S5-S4-S3-S2-S1-PC-B1-A1-UR-UR-UR-UR-UR-SLR-HPCV http://indiarailinfo.com/blog/post/1168926 by manu
Loco
DLI - LKO -> GZB[NR] WAP-5/7; LKO - MLDT ->...
Read more...
LKO[NR] WDM-3D/3A
News    PNR    Forum    Time-Table    Availability    Fare Chart    Map    Arr/Dep History    Trips    Gallery    ΣChains    X/O    Timeline    
Travel Time: 10h 28m    20 halts    Distance: 404 km    Avg Speed: 38 km/hr
Type: Mail/Express
Zone: ER/Eastern
Departs @ 20:52 (Avg 1h 30m late)
Platform# 2
 M W FS
Patna Junction/PNBE 
Arrives @ 07:20 +1 night (Avg 1h 42m late)
Platform# ???
S T T S
Malda Town/MLDT 

20 halts. 94 intermediate Stations between Patna Junction and Malda Town

Show ALL intermediate Stations  Show Old Time-Table

#CodeStation NameX/OArrivesAvgDepartsAvgHaltPFDay#KmSpeedElevZoneAddress
1DLIOld Delhi Junction (16)  -21:50 21:45+1271-1058.831219mNRNear Chandni Chowk Metro Station, Delhi NCT
2GZBGhaziabad Junction (6)  22:26 22:24+1422:28 22:26+152m21-1038.864217mNRGhaziabad, Uttar Pradesh
3KRJKhurja Junction (4)  23:25+4123:28+423m--1-976.142199mNCRBulandshahr, Uttar Pradesh
4ALJNAligarh Junction (4)  00:30+3000:35+325m22-932.686192mNCRAligarh, Uttar Pradesh
5HRSHathras Junction (3)X  00:56+4101:01+385m--2-902.459183mNCRMahamaya Nagar(05722-242803), Uttar Pradesh
6TDLTundla Junction (5)X  01:50+4201:58+438m32-854.550167mNCRDistt.Firozabad, Uttar Pradesh
7FZDFirozabad (4)X  02:18+4602:20+492m22-837.963164mNCRFirozabad, Uttar Pradesh
8SKBShikohabad Junction (4)X  02:39+4802:41+522m22-818.085166mNCRDistrict Firozabad, Uttar Pradesh
9ETWEtawah (5)X  03:20+5203:22+542m32-762.665154mNCRDistt. Etawah, Uttar Pradesh
10CNBKanpur Central (10)X  05:30+4105:45+3815m72-623.347128mNCRKANPUR-208 001, Uttar Pradesh
11ONUnnao Junction (5)  06:06 06:07+1:0106:08 06:09+1:022m--2-605.946129mNRUnnao, Uttar Pradesh
12LKOLucknow Charbagh NR (9)X  07:20+5107:45+5225m--2-551.349123mNR226004, Uttar Pradesh
13BBKBarabanki Junction (4)  08:20+1:0608:22+1:072m--2-522.852122mNRPin-225001, Uttar Pradesh
14DYDDaryabad  09:06+1:0709:07+1:091m--2-484.769116mNRFaizabad Rd, Uttar Pradesh
15RDLRudauli (2)  09:27+1:1309:28+1:131m--2-461.672112mNRRudauli, Uttar Pradesh
16SLWSohwal  09:47+1:1809:48+1:191m--2-438.842107mNRFaizabad Rd, Uttar Pradesh
17FDFaizabad Junction (5)X  10:10+1:1910:15+1:205m--2-423.513104mNRFaizabad, Uttar Pradesh
18ACNDAcharya Narendra Dev Nagar  10:25+1:2110:26+1:211m--2-421.312104mNRFaizabad, Uttar Pradesh
19AYAyodhya Junction (3)X  10:48+1:0810:49+1:081m12-416.86698mNRAyodhya, Uttar Pradesh
20GGJGoshainGanj (3)  11:18+1:1011:19+1:101m--2-385.17498mNRGoshainganj, Uttar Pradesh
21ABPAkbarpur Junction (2)  11:37+1:1111:39+1:112m--2-362.97292mNRAkbarpur, Uttar Pradesh
22MLPRMalipur (2)  11:55+1:2211:56+1:231m--2-343.86292mNRMalipur, Uttar Pradesh
23SHGShahganj Junction (4)X  12:20+1:2712:25 12:27+1:265 7m--2-318.85390mNRShahganj, Uttar Pradesh
24JNUJaunpur Junction (5)X  13:05+1:2413:07+1:272m12-285.52383mNRJaunpur, Uttar Pradesh
25ZBDZafarabad Junction (4)X  13:24+1:2213:25+1:241m--2-279.03683mNRNational Highway 56, Uttar Pradesh
26JLLJalalGanj (2)  13:45+1:1913:46+1:211m--2-267.03487mNRJalalganj Railway Station, Uttar Pradesh
27BSBVaranasi Junction (9)X  15:00 14:55+5915:15+1:0115 20m82-227.81882mNRVaranasi 221002, Uttar Pradesh
28MGSMughal Sarai Junction (8)  16:10+5316:25+5415m--2-211.47483mECRMughalsarai 232101, Uttar Pradesh
29ZNAZamania (2)  17:01+1:0417:03+1:052m--2-167.16777mECRGhazipur, Uttar Pradesh
30DLNDildarnagar Junction (2)X  17:15+1:1217:17+1:132m--2-153.65272mECRDildarnagar, Uttar Pradesh
31BWHBhadaura (2)X17:26+1:0917:28+1:102m--2-145.86169mECRGhazipur, Uttar Pradesh
32GMRGahmar (2)X  17:36+1:1117:38+1:112m--2-137.67968mECRDistt: Ghazipur, Uttar Pradesh
33CSAChausa (2)O  17:45+1:1717:47+1:202m--2-128.46068mECRState Highway 14, Bihar
34BXRBuxar (3)X  17:58+1:1318:03+1:125m--2-117.48967mECRBuxar, Bihar
35DUREDumraon (3)  18:14+1:1918:16+1:202m--2-101.18070mECRDumraon, Bihar
36RPRRaghunathpur (4)  18:28+1:2518:30+1:262m--2-85.17469mECRRaghunathpur, Bihar
37BEABihiya (3)  18:42+1:3218:44+1:352m--2-70.47167mECRBehea, Bihar
38ARAAra Junction (3)X  19:02+1:2219:07+1:245m--2-48.98963mECRarrah( 06182-233411), Bihar
39BTABihta (2)X  19:22+1:2919:24+1:312m--2-26.73462mECRDistt: Patna, Bihar
40DNRDanapur (5)X  19:55+1:4520:05+1:2910m--2-9.41558mECRKhagaul, Bihar
41PNBEPatna Junction (10)»X  20:42+1:2820:52+1:3010m220.02257mECRPatna 800001, Bihar
42RJPBRajendra Nagar Bihar (4)  20:59+1:3921:01+1:392m--22.63455mECRPatna 800001, Bihar
43PNCPatna Saheb (3)X  21:14+1:5021:16+1:522m--29.94159mECRPatna 800008, Bihar
44FUTFatwa (6)  21:34+1:5121:36+1:532m--222.15653mECRPatna, Bihar
45BKPBakhtiyarpur Junction (5)O  22:01+1:3222:05+1:334m--245.43751mECRPatna, Bihar
46BARHBarh (3)  22:34+1:3022:36+1:302m--263.57049mECRBarh, Bihar
47MKAMokama Junction (4)  22:58+1:3123:03+1:295m--289.27148mECRPatna, Bihar
48BRYABarhiya (3)  23:18+1:4223:20+1:422m--2107.02247mECRBarahiya, Bihar
49KIULKiul Junction (5)  00:05+1:2500:10+1:245m--3123.46653mECRDist. Lakhisarai, Bihar
50AHAAbhaipur (3)  00:31+1:3200:33+1:322m--3146.46052mERAbhaipur, Bihar
51JMPJamalpur Junction (4)  00:55+1:3601:05+1:3910m13168.26159mERJamalpur 06344-243101, Bihar
52BUPBariarpur (3)  01:16+1:5001:18+1:502m--3179.45442mERMunger, Bihar
53SGGSultanGanj (3)  01:38+1:5001:40+1:502m--3197.34742mERSultanganj, Bihar
54BGPBhagalpur Junction (6)  02:12+1:4002:22+1:4510m--3222.35649mERBhagalpur, Bihar
55SBOSabaur (3)  02:30+1:5502:32+1:582m--3229.86142mERSabour, Bihar
56CLGKahalgaon (2)  02:54+2:1502:56+2:172m13252.33744mERBhagalpur, Bihar
57PPTPirpainti (2)  03:29+2:1703:31+2:192m--3272.72653mERBhagalpur, Bihar
58SBGSahibganj Junction (3)X  04:25+2:0304:33+2:108m13296.28138mERSahibganj, Jharkhand
59TPHTinpahar Junction (3)X  05:00 05:01+2:3505:02 05:03+2:352m23334.03545mERBamangawan, Jharkhand
60BHWBarharwa Junction (3)  05:32+2:2705:36+2:304m23350.74036mERBarharwa, Jharkhand
61NFKNew Farakka Junction (3)X  06:03+2:3106:08+2:295m23368.72932mERDist - Murshidabad, West Bengal
62MLDTMalda Town (5)•  07:20+1:42---3403.8-30mERDist - Malda, West Bengal
Scroll to Top
Scroll to Bottom